sensor_id;sensor_type;location;lat;lon;timestamp;temperature;humidity
71837;DHT22;59686;51.716;7.016;2023-12-22T00:01:12;9.10;95.10
71837;DHT22;59686;51.716;7.016;2023-12-22T00:03:41;9.10;95.00
71837;DHT22;59686;51.716;7.016;2023-12-22T00:06:31;9.00;95.00
71837;DHT22;59686;51.716;7.016;2023-12-22T00:08:56;9.10;95.00
71837;DHT22;59686;51.716;7.016;2023-12-22T00:11:22;9.10;94.90
71837;DHT22;59686;51.716;7.016;2023-12-22T00:13:47;9.00;95.10
71837;DHT22;59686;51.716;7.016;2023-12-22T00:16:13;9.10;95.10
71837;DHT22;59686;51.716;7.016;2023-12-22T00:18:39;9.00;94.90
71837;DHT22;59686;51.716;7.016;2023-12-22T00:21:05;9.10;95.10
71837;DHT22;59686;51.716;7.016;2023-12-22T00:23:50;9.10;95.00
71837;DHT22;59686;51.716;7.016;2023-12-22T00:26:16;9.10;95.10
71837;DHT22;59686;51.716;7.016;2023-12-22T00:28:42;9.00;95.00
71837;DHT22;59686;51.716;7.016;2023-12-22T00:31:08;9.10;95.30
71837;DHT22;59686;51.716;7.016;2023-12-22T00:33:34;9.10;95.20
71837;DHT22;59686;51.716;7.016;2023-12-22T00:35:59;9.10;95.10
71837;DHT22;59686;51.716;7.016;2023-12-22T00:38:25;9.00;95.00
71837;DHT22;59686;51.716;7.016;2023-12-22T00:40:50;9.00;95.10
71837;DHT22;59686;51.716;7.016;2023-12-22T00:43:16;8.90;95.10
71837;DHT22;59686;51.716;7.016;2023-12-22T00:45:42;9.00;95.30
71837;DHT22;59686;51.716;7.016;2023-12-22T00:48:07;8.90;95.20
71837;DHT22;59686;51.716;7.016;2023-12-22T00:50:33;8.90;95.20
71837;DHT22;59686;51.716;7.016;2023-12-22T00:52:59;8.90;95.20
71837;DHT22;59686;51.716;7.016;2023-12-22T00:55:24;9.00;95.30
71837;DHT22;59686;51.716;7.016;2023-12-22T00:57:53;8.90;95.30
71837;DHT22;59686;51.716;7.016;2023-12-22T01:00:19;8.90;95.40
71837;DHT22;59686;51.716;7.016;2023-12-22T01:03:03;8.90;95.40
71837;DHT22;59686;51.716;7.016;2023-12-22T01:05:29;9.00;95.50
71837;DHT22;59686;51.716;7.016;2023-12-22T01:07:54;9.00;95.60
71837;DHT22;59686;51.716;7.016;2023-12-22T01:10:25;9.00;95.60
71837;DHT22;59686;51.716;7.016;2023-12-22T01:12:50;9.00;95.80
71837;DHT22;59686;51.716;7.016;2023-12-22T01:15:16;8.90;95.50
71837;DHT22;59686;51.716;7.016;2023-12-22T01:17:42;9.00;95.70
71837;DHT22;59686;51.716;7.016;2023-12-22T01:20:22;9.00;95.60
71837;DHT22;59686;51.716;7.016;2023-12-22T01:22:47;9.00;95.60
71837;DHT22;59686;51.716;7.016;2023-12-22T01:25:13;8.90;95.60
71837;DHT22;59686;51.716;7.016;2023-12-22T01:27:39;8.90;95.70
71837;DHT22;59686;51.716;7.016;2023-12-22T01:30:05;8.90;95.70
71837;DHT22;59686;51.716;7.016;2023-12-22T01:32:31;8.90;95.80
71837;DHT22;59686;51.716;7.016;2023-12-22T01:35:00;8.80;95.90
71837;DHT22;59686;51.716;7.016;2023-12-22T01:37:29;8.90;95.90
71837;DHT22;59686;51.716;7.016;2023-12-22T01:39:55;8.90;96.00
71837;DHT22;59686;51.716;7.016;2023-12-22T01:42:21;8.90;96.00
71837;DHT22;59686;51.716;7.016;2023-12-22T01:44:46;8.90;96.10
71837;DHT22;59686;51.716;7.016;2023-12-22T01:47:12;8.90;96.20
71837;DHT22;59686;51.716;7.016;2023-12-22T01:49:39;8.90;96.20
71837;DHT22;59686;51.716;7.016;2023-12-22T01:52:05;8.90;96.00
71837;DHT22;59686;51.716;7.016;2023-12-22T01:54:31;8.90;96.00
71837;DHT22;59686;51.716;7.016;2023-12-22T01:56:57;8.90;95.90
71837;DHT22;59686;51.716;7.016;2023-12-22T01:59:23;9.00;95.80
71837;DHT22;59686;51.716;7.016;2023-12-22T02:01:49;8.90;95.70
71837;DHT22;59686;51.716;7.016;2023-12-22T02:04:15;8.80;95.50
71837;DHT22;59686;51.716;7.016;2023-12-22T02:06:41;8.80;95.60
71837;DHT22;59686;51.716;7.016;2023-12-22T02:09:08;8.80;95.50
71837;DHT22;59686;51.716;7.016;2023-12-22T02:11:34;8.90;95.40
71837;DHT22;59686;51.716;7.016;2023-12-22T02:13:59;8.80;95.40
71837;DHT22;59686;51.716;7.016;2023-12-22T02:18:56;8.80;95.40
71837;DHT22;59686;51.716;7.016;2023-12-22T02:21:22;8.80;95.40
71837;DHT22;59686;51.716;7.016;2023-12-22T02:23:48;8.80;95.40
71837;DHT22;59686;51.716;7.016;2023-12-22T02:26:24;8.80;95.30
71837;DHT22;59686;51.716;7.016;2023-12-22T02:28:52;8.80;95.30
71837;DHT22;59686;51.716;7.016;2023-12-22T02:31:40;8.80;95.40
71837;DHT22;59686;51.716;7.016;2023-12-22T02:34:13;8.90;95.30
71837;DHT22;59686;51.716;7.016;2023-12-22T02:36:43;9.00;95.30
71837;DHT22;59686;51.716;7.016;2023-12-22T02:39:10;8.80;95.20
71837;DHT22;59686;51.716;7.016;2023-12-22T02:41:38;8.80;95.20
71837;DHT22;59686;51.716;7.016;2023-12-22T02:44:04;8.80;95.20
71837;DHT22;59686;51.716;7.016;2023-12-22T02:46:30;8.80;95.10
71837;DHT22;59686;51.716;7.016;2023-12-22T02:48:56;8.80;95.10
71837;DHT22;59686;51.716;7.016;2023-12-22T02:51:21;8.80;95.10
71837;DHT22;59686;51.716;7.016;2023-12-22T02:53:47;8.70;95.00
71837;DHT22;59686;51.716;7.016;2023-12-22T02:56:31;8.80;95.00
71837;DHT22;59686;51.716;7.016;2023-12-22T02:58:56;8.70;95.00
71837;DHT22;59686;51.716;7.016;2023-12-22T03:01:22;8.70;95.00
71837;DHT22;59686;51.716;7.016;2023-12-22T03:03:48;8.80;95.00
71837;DHT22;59686;51.716;7.016;2023-12-22T03:06:37;8.80;95.00
71837;DHT22;59686;51.716;7.016;2023-12-22T03:09:03;8.70;95.00
71837;DHT22;59686;51.716;7.016;2023-12-22T03:11:29;8.60;95.10
71837;DHT22;59686;51.716;7.016;2023-12-22T03:13:54;8.70;95.00
71837;DHT22;59686;51.716;7.016;2023-12-22T03:16:20;8.70;94.90
71837;DHT22;59686;51.716;7.016;2023-12-22T03:18:46;8.70;94.70
71837;DHT22;59686;51.716;7.016;2023-12-22T03:21:17;8.70;94.60
71837;DHT22;59686;51.716;7.016;2023-12-22T03:23:44;8.60;94.40
71837;DHT22;59686;51.716;7.016;2023-12-22T03:26:09;8.70;94.30
71837;DHT22;59686;51.716;7.016;2023-12-22T03:28:35;8.60;94.30
71837;DHT22;59686;51.716;7.016;2023-12-22T03:31:01;8.70;94.50
71837;DHT22;59686;51.716;7.016;2023-12-22T03:33:26;8.70;94.60
71837;DHT22;59686;51.716;7.016;2023-12-22T03:35:52;8.80;94.90
71837;DHT22;59686;51.716;7.016;2023-12-22T03:38:18;8.70;95.00
71837;DHT22;59686;51.716;7.016;2023-12-22T03:40:43;8.70;95.20
71837;DHT22;59686;51.716;7.016;2023-12-22T03:43:09;8.80;95.30
71837;DHT22;59686;51.716;7.016;2023-12-22T03:45:35;8.70;95.30
71837;DHT22;59686;51.716;7.016;2023-12-22T03:48:00;8.80;95.50
71837;DHT22;59686;51.716;7.016;2023-12-22T03:50:26;8.80;95.50
71837;DHT22;59686;51.716;7.016;2023-12-22T03:52:57;8.90;95.60
71837;DHT22;59686;51.716;7.016;2023-12-22T03:55:22;8.70;95.60
71837;DHT22;59686;51.716;7.016;2023-12-22T03:57:48;8.70;95.70
71837;DHT22;59686;51.716;7.016;2023-12-22T04:00:14;8.70;95.60
71837;DHT22;59686;51.716;7.016;2023-12-22T04:02:41;8.70;95.60
71837;DHT22;59686;51.716;7.016;2023-12-22T04:05:07;8.60;95.50
71837;DHT22;59686;51.716;7.016;2023-12-22T04:07:42;8.70;95.60
71837;DHT22;59686;51.716;7.016;2023-12-22T04:10:08;8.60;95.70
71837;DHT22;59686;51.716;7.016;2023-12-22T04:12:34;8.70;95.80
71837;DHT22;59686;51.716;7.016;2023-12-22T04:14:59;8.70;95.80
71837;DHT22;59686;51.716;7.016;2023-12-22T04:17:25;8.70;95.90
71837;DHT22;59686;51.716;7.016;2023-12-22T04:19:50;8.60;95.80
71837;DHT22;59686;51.716;7.016;2023-12-22T04:22:18;8.60;95.90
71837;DHT22;59686;51.716;7.016;2023-12-22T04:24:43;8.50;95.90
71837;DHT22;59686;51.716;7.016;2023-12-22T04:27:09;8.50;95.90
71837;DHT22;59686;51.716;7.016;2023-12-22T04:29:34;8.60;95.90
71837;DHT22;59686;51.716;7.016;2023-12-22T04:32:00;8.60;95.80
71837;DHT22;59686;51.716;7.016;2023-12-22T04:34:26;8.70;95.90
71837;DHT22;59686;51.716;7.016;2023-12-22T04:37:00;8.60;95.80
71837;DHT22;59686;51.716;7.016;2023-12-22T04:39:25;8.60;95.70
71837;DHT22;59686;51.716;7.016;2023-12-22T04:41:51;8.60;95.80
71837;DHT22;59686;51.716;7.016;2023-12-22T04:44:16;8.50;95.70
71837;DHT22;59686;51.716;7.016;2023-12-22T04:46:42;8.50;95.70
71837;DHT22;59686;51.716;7.016;2023-12-22T04:49:08;8.50;95.70
71837;DHT22;59686;51.716;7.016;2023-12-22T04:51:33;8.60;95.70
71837;DHT22;59686;51.716;7.016;2023-12-22T04:53:59;8.50;95.70
71837;DHT22;59686;51.716;7.016;2023-12-22T04:56:25;8.50;95.70
71837;DHT22;59686;51.716;7.016;2023-12-22T04:58:51;8.50;95.70
71837;DHT22;59686;51.716;7.016;2023-12-22T05:01:16;8.50;95.70
71837;DHT22;59686;51.716;7.016;2023-12-22T05:03:59;8.50;95.70
71837;DHT22;59686;51.716;7.016;2023-12-22T05:06:25;8.50;95.70
71837;DHT22;59686;51.716;7.016;2023-12-22T05:08:50;8.50;95.70
71837;DHT22;59686;51.716;7.016;2023-12-22T05:11:16;8.50;95.70
71837;DHT22;59686;51.716;7.016;2023-12-22T05:13:42;8.50;95.70
71837;DHT22;59686;51.716;7.016;2023-12-22T05:16:08;8.60;95.70
71837;DHT22;59686;51.716;7.016;2023-12-22T05:18:34;8.50;95.60
71837;DHT22;59686;51.716;7.016;2023-12-22T05:21:00;8.50;95.60
71837;DHT22;59686;51.716;7.016;2023-12-22T05:23:25;8.50;95.60
71837;DHT22;59686;51.716;7.016;2023-12-22T05:25:51;8.50;95.60
71837;DHT22;59686;51.716;7.016;2023-12-22T05:28:17;8.50;95.60
71837;DHT22;59686;51.716;7.016;2023-12-22T05:30:42;8.50;95.60
71837;DHT22;59686;51.716;7.016;2023-12-22T05:33:08;8.50;95.60
71837;DHT22;59686;51.716;7.016;2023-12-22T05:35:34;8.50;95.60
71837;DHT22;59686;51.716;7.016;2023-12-22T05:37:59;8.40;95.60
71837;DHT22;59686;51.716;7.016;2023-12-22T05:40:25;8.50;95.60
71837;DHT22;59686;51.716;7.016;2023-12-22T05:42:51;8.50;95.50
71837;DHT22;59686;51.716;7.016;2023-12-22T05:45:16;8.50;95.50
71837;DHT22;59686;51.716;7.016;2023-12-22T05:47:42;8.50;95.60
71837;DHT22;59686;51.716;7.016;2023-12-22T05:50:08;8.50;95.50
71837;DHT22;59686;51.716;7.016;2023-12-22T05:52:34;8.50;95.60
71837;DHT22;59686;51.716;7.016;2023-12-22T05:54:59;8.50;95.60
71837;DHT22;59686;51.716;7.016;2023-12-22T05:57:25;8.50;95.50
71837;DHT22;59686;51.716;7.016;2023-12-22T05:59:51;8.50;95.50
71837;DHT22;59686;51.716;7.016;2023-12-22T06:02:17;8.50;95.60
71837;DHT22;59686;51.716;7.016;2023-12-22T06:04:43;8.50;95.60
71837;DHT22;59686;51.716;7.016;2023-12-22T06:07:14;8.50;95.50
71837;DHT22;59686;51.716;7.016;2023-12-22T06:09:40;8.50;95.50
71837;DHT22;59686;51.716;7.016;2023-12-22T06:12:06;8.50;95.50
71837;DHT22;59686;51.716;7.016;2023-12-22T06:14:31;8.50;95.50
71837;DHT22;59686;51.716;7.016;2023-12-22T06:16:57;8.50;95.50
71837;DHT22;59686;51.716;7.016;2023-12-22T06:19:24;8.50;95.50
71837;DHT22;59686;51.716;7.016;2023-12-22T06:21:53;8.50;95.50
71837;DHT22;59686;51.716;7.016;2023-12-22T06:24:19;8.50;95.50
71837;DHT22;59686;51.716;7.016;2023-12-22T06:26:45;8.50;95.60
71837;DHT22;59686;51.716;7.016;2023-12-22T06:29:10;8.60;95.80
71837;DHT22;59686;51.716;7.016;2023-12-22T06:31:36;8.60;95.70
71837;DHT22;59686;51.716;7.016;2023-12-22T06:34:02;8.50;95.70
71837;DHT22;59686;51.716;7.016;2023-12-22T06:36:28;8.50;95.70
71837;DHT22;59686;51.716;7.016;2023-12-22T06:38:55;8.40;95.70
71837;DHT22;59686;51.716;7.016;2023-12-22T06:41:27;8.50;95.70
71837;DHT22;59686;51.716;7.016;2023-12-22T06:43:54;8.50;95.90
71837;DHT22;59686;51.716;7.016;2023-12-22T06:46:22;8.50;95.80
71837;DHT22;59686;51.716;7.016;2023-12-22T06:48:48;8.60;95.90
71837;DHT22;59686;51.716;7.016;2023-12-22T06:51:22;8.60;95.90
71837;DHT22;59686;51.716;7.016;2023-12-22T06:53:48;8.50;96.00
71837;DHT22;59686;51.716;7.016;2023-12-22T06:56:20;8.60;96.20
71837;DHT22;59686;51.716;7.016;2023-12-22T06:58:49;8.50;96.20
71837;DHT22;59686;51.716;7.016;2023-12-22T07:01:23;8.50;96.30
71837;DHT22;59686;51.716;7.016;2023-12-22T07:03:49;8.50;96.30
71837;DHT22;59686;51.716;7.016;2023-12-22T07:06:16;8.50;96.30
71837;DHT22;59686;51.716;7.016;2023-12-22T07:08:42;8.60;96.40
71837;DHT22;59686;51.716;7.016;2023-12-22T07:11:09;8.50;96.40
71837;DHT22;59686;51.716;7.016;2023-12-22T07:13:35;8.50;96.40
71837;DHT22;59686;51.716;7.016;2023-12-22T07:16:01;8.60;96.50
71837;DHT22;59686;51.716;7.016;2023-12-22T07:18:28;8.60;96.50
71837;DHT22;59686;51.716;7.016;2023-12-22T07:20:59;8.50;96.40
71837;DHT22;59686;51.716;7.016;2023-12-22T07:23:26;8.60;96.50
71837;DHT22;59686;51.716;7.016;2023-12-22T07:25:52;8.60;96.50
71837;DHT22;59686;51.716;7.016;2023-12-22T07:28:17;8.60;96.50
71837;DHT22;59686;51.716;7.016;2023-12-22T07:30:43;8.60;96.50
71837;DHT22;59686;51.716;7.016;2023-12-22T07:33:09;8.60;96.50
71837;DHT22;59686;51.716;7.016;2023-12-22T07:35:50;8.60;96.60
71837;DHT22;59686;51.716;7.016;2023-12-22T07:38:15;8.60;96.60
71837;DHT22;59686;51.716;7.016;2023-12-22T07:40:49;8.60;96.60
71837;DHT22;59686;51.716;7.016;2023-12-22T07:43:15;8.60;96.60
71837;DHT22;59686;51.716;7.016;2023-12-22T07:45:41;8.60;96.60
71837;DHT22;59686;51.716;7.016;2023-12-22T07:48:07;8.60;96.60
71837;DHT22;59686;51.716;7.016;2023-12-22T07:50:33;8.60;96.60
71837;DHT22;59686;51.716;7.016;2023-12-22T07:52:59;8.60;96.60
71837;DHT22;59686;51.716;7.016;2023-12-22T07:55:25;8.60;96.60
71837;DHT22;59686;51.716;7.016;2023-12-22T07:58:10;8.60;96.70
71837;DHT22;59686;51.716;7.016;2023-12-22T08:00:36;8.60;96.70
71837;DHT22;59686;51.716;7.016;2023-12-22T08:03:03;8.50;96.80
71837;DHT22;59686;51.716;7.016;2023-12-22T08:05:28;8.60;96.90
71837;DHT22;59686;51.716;7.016;2023-12-22T08:08:04;8.60;96.90
71837;DHT22;59686;51.716;7.016;2023-12-22T08:10:30;8.60;96.90
71837;DHT22;59686;51.716;7.016;2023-12-22T08:12:56;8.60;96.90
71837;DHT22;59686;51.716;7.016;2023-12-22T08:15:22;8.60;97.00
71837;DHT22;59686;51.716;7.016;2023-12-22T08:17:51;8.60;97.00
71837;DHT22;59686;51.716;7.016;2023-12-22T08:20:21;8.60;97.00
71837;DHT22;59686;51.716;7.016;2023-12-22T08:22:47;8.60;97.10
71837;DHT22;59686;51.716;7.016;2023-12-22T08:25:13;8.70;97.20
71837;DHT22;59686;51.716;7.016;2023-12-22T08:27:39;8.60;97.20
71837;DHT22;59686;51.716;7.016;2023-12-22T08:30:06;8.60;97.20
71837;DHT22;59686;51.716;7.016;2023-12-22T08:32:32;8.60;97.20
71837;DHT22;59686;51.716;7.016;2023-12-22T08:34:57;8.60;97.30
71837;DHT22;59686;51.716;7.016;2023-12-22T08:37:23;8.60;97.40
71837;DHT22;59686;51.716;7.016;2023-12-22T08:39:48;8.60;97.50
71837;DHT22;59686;51.716;7.016;2023-12-22T08:42:16;8.60;97.50
71837;DHT22;59686;51.716;7.016;2023-12-22T08:44:42;8.60;97.60
71837;DHT22;59686;51.716;7.016;2023-12-22T08:47:12;8.60;97.60
71837;DHT22;59686;51.716;7.016;2023-12-22T08:49:37;8.60;97.60
71837;DHT22;59686;51.716;7.016;2023-12-22T08:52:03;8.50;97.60
71837;DHT22;59686;51.716;7.016;2023-12-22T08:54:31;8.60;97.80
71837;DHT22;59686;51.716;7.016;2023-12-22T08:56:59;8.50;97.80
71837;DHT22;59686;51.716;7.016;2023-12-22T08:59:25;8.60;97.90
71837;DHT22;59686;51.716;7.016;2023-12-22T09:01:51;8.60;97.90
71837;DHT22;59686;51.716;7.016;2023-12-22T09:04:16;8.60;98.00
71837;DHT22;59686;51.716;7.016;2023-12-22T09:06:42;8.60;98.00
71837;DHT22;59686;51.716;7.016;2023-12-22T09:09:08;8.60;98.00
71837;DHT22;59686;51.716;7.016;2023-12-22T09:11:37;8.70;98.00
71837;DHT22;59686;51.716;7.016;2023-12-22T09:14:05;8.60;98.10
71837;DHT22;59686;51.716;7.016;2023-12-22T09:16:34;8.70;98.10
71837;DHT22;59686;51.716;7.016;2023-12-22T09:18:59;8.60;98.10
71837;DHT22;59686;51.716;7.016;2023-12-22T09:21:25;8.60;98.20
71837;DHT22;59686;51.716;7.016;2023-12-22T09:23:51;8.60;98.10
71837;DHT22;59686;51.716;7.016;2023-12-22T09:26:17;8.60;98.10
71837;DHT22;59686;51.716;7.016;2023-12-22T09:28:44;8.60;98.20
71837;DHT22;59686;51.716;7.016;2023-12-22T09:31:10;8.60;98.40
71837;DHT22;59686;51.716;7.016;2023-12-22T09:33:36;8.50;98.50
71837;DHT22;59686;51.716;7.016;2023-12-22T09:36:02;8.60;98.60
71837;DHT22;59686;51.716;7.016;2023-12-22T09:38:28;8.60;98.70
71837;DHT22;59686;51.716;7.016;2023-12-22T09:40:55;8.70;98.60
71837;DHT22;59686;51.716;7.016;2023-12-22T09:43:21;8.60;98.60
71837;DHT22;59686;51.716;7.016;2023-12-22T09:45:49;8.60;98.60
71837;DHT22;59686;51.716;7.016;2023-12-22T09:48:17;8.60;98.50
71837;DHT22;59686;51.716;7.016;2023-12-22T09:50:43;8.60;98.60
71837;DHT22;59686;51.716;7.016;2023-12-22T09:53:12;8.70;98.60
71837;DHT22;59686;51.716;7.016;2023-12-22T09:55:42;8.60;98.60
71837;DHT22;59686;51.716;7.016;2023-12-22T09:58:09;8.60;98.70
71837;DHT22;59686;51.716;7.016;2023-12-22T10:00:36;8.70;98.70
71837;DHT22;59686;51.716;7.016;2023-12-22T10:03:06;8.60;98.70
71837;DHT22;59686;51.716;7.016;2023-12-22T10:05:33;8.70;98.70
71837;DHT22;59686;51.716;7.016;2023-12-22T10:08:00;8.70;98.60
71837;DHT22;59686;51.716;7.016;2023-12-22T10:10:30;8.80;98.80
71837;DHT22;59686;51.716;7.016;2023-12-22T10:12:56;8.70;98.60
71837;DHT22;59686;51.716;7.016;2023-12-22T10:15:24;8.70;98.70
71837;DHT22;59686;51.716;7.016;2023-12-22T10:17:50;8.70;98.70
71837;DHT22;59686;51.716;7.016;2023-12-22T10:20:16;8.70;98.70
71837;DHT22;59686;51.716;7.016;2023-12-22T10:22:42;8.70;98.80
71837;DHT22;59686;51.716;7.016;2023-12-22T10:25:08;8.70;98.80
71837;DHT22;59686;51.716;7.016;2023-12-22T10:27:36;8.70;98.80
71837;DHT22;59686;51.716;7.016;2023-12-22T10:30:03;8.70;98.90
71837;DHT22;59686;51.716;7.016;2023-12-22T10:32:29;8.70;98.90
71837;DHT22;59686;51.716;7.016;2023-12-22T10:34:58;8.80;98.90
71837;DHT22;59686;51.716;7.016;2023-12-22T10:37:24;8.70;99.00
71837;DHT22;59686;51.716;7.016;2023-12-22T10:39:56;8.70;98.80
71837;DHT22;59686;51.716;7.016;2023-12-22T10:42:22;8.70;98.80
71837;DHT22;59686;51.716;7.016;2023-12-22T10:45:09;8.70;99.00
71837;DHT22;59686;51.716;7.016;2023-12-22T10:47:35;8.60;99.10
71837;DHT22;59686;51.716;7.016;2023-12-22T10:50:04;8.60;99.30
71837;DHT22;59686;51.716;7.016;2023-12-22T10:52:30;8.60;99.40
71837;DHT22;59686;51.716;7.016;2023-12-22T10:54:57;8.70;99.50
71837;DHT22;59686;51.716;7.016;2023-12-22T10:57:23;8.70;99.60
71837;DHT22;59686;51.716;7.016;2023-12-22T10:59:55;8.70;99.60
71837;DHT22;59686;51.716;7.016;2023-12-22T11:02:22;8.60;99.80
71837;DHT22;59686;51.716;7.016;2023-12-22T11:07:14;8.70;99.90
71837;DHT22;59686;51.716;7.016;2023-12-22T11:09:43;8.70;99.80
71837;DHT22;59686;51.716;7.016;2023-12-22T11:12:19;8.70;99.70
71837;DHT22;59686;51.716;7.016;2023-12-22T11:14:46;8.70;99.70
71837;DHT22;59686;51.716;7.016;2023-12-22T11:17:19;8.70;99.70
71837;DHT22;59686;51.716;7.016;2023-12-22T11:19:49;8.70;99.80
71837;DHT22;59686;51.716;7.016;2023-12-22T11:22:16;8.70;99.70
71837;DHT22;59686;51.716;7.016;2023-12-22T11:24:48;8.70;99.80
71837;DHT22;59686;51.716;7.016;2023-12-22T11:27:23;8.70;99.80
71837;DHT22;59686;51.716;7.016;2023-12-22T11:30:21;8.80;99.90
71837;DHT22;59686;51.716;7.016;2023-12-22T11:32:49;8.70;99.90
71837;DHT22;59686;51.716;7.016;2023-12-22T11:35:16;8.70;99.90
71837;DHT22;59686;51.716;7.016;2023-12-22T11:37:52;8.70;99.90
71837;DHT22;59686;51.716;7.016;2023-12-22T11:40:18;8.70;99.80
71837;DHT22;59686;51.716;7.016;2023-12-22T11:42:49;8.70;99.90
71837;DHT22;59686;51.716;7.016;2023-12-22T11:45:17;8.70;99.80
71837;DHT22;59686;51.716;7.016;2023-12-22T11:47:43;8.70;99.80
71837;DHT22;59686;51.716;7.016;2023-12-22T11:50:11;8.70;99.80
71837;DHT22;59686;51.716;7.016;2023-12-22T11:52:37;8.70;99.90
71837;DHT22;59686;51.716;7.016;2023-12-22T11:55:04;8.70;99.90
71837;DHT22;59686;51.716;7.016;2023-12-22T11:57:32;8.80;99.90
71837;DHT22;59686;51.716;7.016;2023-12-22T12:03:06;8.70;99.90
71837;DHT22;59686;51.716;7.016;2023-12-22T12:05:32;8.70;99.90
71837;DHT22;59686;51.716;7.016;2023-12-22T12:08:11;8.70;99.90
71837;DHT22;59686;51.716;7.016;2023-12-22T12:10:51;8.70;99.90
71837;DHT22;59686;51.716;7.016;2023-12-22T12:13:22;8.80;99.90
71837;DHT22;59686;51.716;7.016;2023-12-22T12:15:50;8.80;99.90
71837;DHT22;59686;51.716;7.016;2023-12-22T12:18:27;8.80;99.90
71837;DHT22;59686;51.716;7.016;2023-12-22T12:21:11;8.80;99.90
71837;DHT22;59686;51.716;7.016;2023-12-22T12:23:37;8.90;99.90
71837;DHT22;59686;51.716;7.016;2023-12-22T12:26:06;8.70;99.90
71837;DHT22;59686;51.716;7.016;2023-12-22T12:28:42;8.70;99.80
71837;DHT22;59686;51.716;7.016;2023-12-22T12:31:09;8.80;99.70
71837;DHT22;59686;51.716;7.016;2023-12-22T12:33:35;8.80;99.80
71837;DHT22;59686;51.716;7.016;2023-12-22T12:36:02;8.70;99.70
71837;DHT22;59686;51.716;7.016;2023-12-22T12:38:54;8.70;99.70
71837;DHT22;59686;51.716;7.016;2023-12-22T12:41:31;8.70;99.70
71837;DHT22;59686;51.716;7.016;2023-12-22T12:43:58;8.70;99.60
71837;DHT22;59686;51.716;7.016;2023-12-22T12:46:33;8.80;99.70
71837;DHT22;59686;51.716;7.016;2023-12-22T12:49:18;8.80;99.70
71837;DHT22;59686;51.716;7.016;2023-12-22T12:51:46;8.80;99.60
71837;DHT22;59686;51.716;7.016;2023-12-22T12:54:13;8.80;99.80
71837;DHT22;59686;51.716;7.016;2023-12-22T12:56:46;8.90;99.80
71837;DHT22;59686;51.716;7.016;2023-12-22T12:59:17;8.80;99.80
71837;DHT22;59686;51.716;7.016;2023-12-22T13:01:47;8.80;99.90
71837;DHT22;59686;51.716;7.016;2023-12-22T13:04:13;8.80;99.80
71837;DHT22;59686;51.716;7.016;2023-12-22T13:06:49;8.80;99.90
71837;DHT22;59686;51.716;7.016;2023-12-22T13:09:15;8.80;99.90
71837;DHT22;59686;51.716;7.016;2023-12-22T13:11:46;8.80;99.90
71837;DHT22;59686;51.716;7.016;2023-12-22T13:14:21;8.90;99.90
71837;DHT22;59686;51.716;7.016;2023-12-22T13:16:48;8.80;99.90
71837;DHT22;59686;51.716;7.016;2023-12-22T13:19:14;8.80;99.90
71837;DHT22;59686;51.716;7.016;2023-12-22T13:21:40;8.80;99.90
71837;DHT22;59686;51.716;7.016;2023-12-22T13:24:12;8.80;99.90
71837;DHT22;59686;51.716;7.016;2023-12-22T13:26:39;8.80;99.90
71837;DHT22;59686;51.716;7.016;2023-12-22T13:29:06;8.80;99.90
71837;DHT22;59686;51.716;7.016;2023-12-22T13:31:32;8.80;99.90
71837;DHT22;59686;51.716;7.016;2023-12-22T13:34:12;8.80;99.90
71837;DHT22;59686;51.716;7.016;2023-12-22T13:36:39;8.80;99.90
71837;DHT22;59686;51.716;7.016;2023-12-22T13:39:06;8.80;99.90
71837;DHT22;59686;51.716;7.016;2023-12-22T13:41:38;8.80;99.90
71837;DHT22;59686;51.716;7.016;2023-12-22T13:44:11;8.80;99.90
71837;DHT22;59686;51.716;7.016;2023-12-22T13:46:37;8.80;99.90
71837;DHT22;59686;51.716;7.016;2023-12-22T13:49:11;8.80;99.90
71837;DHT22;59686;51.716;7.016;2023-12-22T13:51:44;8.80;99.90
71837;DHT22;59686;51.716;7.016;2023-12-22T13:54:11;8.80;99.90
71837;DHT22;59686;51.716;7.016;2023-12-22T13:56:37;8.80;99.90
71837;DHT22;59686;51.716;7.016;2023-12-22T13:59:06;8.80;99.90
71837;DHT22;59686;51.716;7.016;2023-12-22T14:01:32;8.80;99.90
71837;DHT22;59686;51.716;7.016;2023-12-22T14:04:01;8.70;99.90
71837;DHT22;59686;51.716;7.016;2023-12-22T14:06:27;8.80;99.90
71837;DHT22;59686;51.716;7.016;2023-12-22T14:08:54;8.80;99.90
71837;DHT22;59686;51.716;7.016;2023-12-22T14:11:21;8.90;99.90
71837;DHT22;59686;51.716;7.016;2023-12-22T14:13:46;8.90;99.90
71837;DHT22;59686;51.716;7.016;2023-12-22T14:16:12;8.90;99.90
71837;DHT22;59686;51.716;7.016;2023-12-22T14:18:39;9.00;99.90
71837;DHT22;59686;51.716;7.016;2023-12-22T14:21:04;9.00;99.90
71837;DHT22;59686;51.716;7.016;2023-12-22T14:23:31;9.00;99.90
71837;DHT22;59686;51.716;7.016;2023-12-22T14:25:57;9.00;99.90
71837;DHT22;59686;51.716;7.016;2023-12-22T14:28:26;9.10;99.90
71837;DHT22;59686;51.716;7.016;2023-12-22T14:30:53;9.10;99.90
71837;DHT22;59686;51.716;7.016;2023-12-22T14:33:18;9.10;99.90
71837;DHT22;59686;51.716;7.016;2023-12-22T14:35:44;9.10;99.90
71837;DHT22;59686;51.716;7.016;2023-12-22T14:38:10;9.10;99.90
71837;DHT22;59686;51.716;7.016;2023-12-22T14:40:36;9.10;99.90
71837;DHT22;59686;51.716;7.016;2023-12-22T14:43:01;9.10;99.90
71837;DHT22;59686;51.716;7.016;2023-12-22T14:45:28;9.10;99.90
71837;DHT22;59686;51.716;7.016;2023-12-22T14:47:54;9.10;99.90
71837;DHT22;59686;51.716;7.016;2023-12-22T14:50:20;9.10;99.90
71837;DHT22;59686;51.716;7.016;2023-12-22T14:52:46;9.10;99.90
71837;DHT22;59686;51.716;7.016;2023-12-22T14:55:11;9.20;99.90
71837;DHT22;59686;51.716;7.016;2023-12-22T14:57:42;9.10;99.90
71837;DHT22;59686;51.716;7.016;2023-12-22T15:00:08;9.10;99.90
71837;DHT22;59686;51.716;7.016;2023-12-22T15:02:35;9.20;99.90
71837;DHT22;59686;51.716;7.016;2023-12-22T15:05:02;9.20;99.90
71837;DHT22;59686;51.716;7.016;2023-12-22T15:07:29;9.20;99.90
71837;DHT22;59686;51.716;7.016;2023-12-22T15:09:55;9.20;99.90
71837;DHT22;59686;51.716;7.016;2023-12-22T15:12:21;9.10;99.90
71837;DHT22;59686;51.716;7.016;2023-12-22T15:14:47;9.10;99.90
71837;DHT22;59686;51.716;7.016;2023-12-22T15:17:13;9.10;99.90
71837;DHT22;59686;51.716;7.016;2023-12-22T15:19:40;9.10;99.90
71837;DHT22;59686;51.716;7.016;2023-12-22T15:22:12;9.10;99.90
71837;DHT22;59686;51.716;7.016;2023-12-22T15:24:40;9.10;99.90
71837;DHT22;59686;51.716;7.016;2023-12-22T15:27:12;9.10;99.90
71837;DHT22;59686;51.716;7.016;2023-12-22T15:29:37;9.10;99.90
71837;DHT22;59686;51.716;7.016;2023-12-22T15:32:03;9.10;99.90
71837;DHT22;59686;51.716;7.016;2023-12-22T15:34:32;9.10;99.90
71837;DHT22;59686;51.716;7.016;2023-12-22T15:36:58;9.10;99.90
71837;DHT22;59686;51.716;7.016;2023-12-22T15:39:23;9.10;99.90
71837;DHT22;59686;51.716;7.016;2023-12-22T15:41:49;9.10;99.90
71837;DHT22;59686;51.716;7.016;2023-12-22T15:44:21;9.10;99.90
71837;DHT22;59686;51.716;7.016;2023-12-22T15:46:47;9.00;99.90
71837;DHT22;59686;51.716;7.016;2023-12-22T15:49:12;9.10;99.90
71837;DHT22;59686;51.716;7.016;2023-12-22T15:51:38;9.10;99.90
71837;DHT22;59686;51.716;7.016;2023-12-22T15:54:04;9.10;99.90
71837;DHT22;59686;51.716;7.016;2023-12-22T15:56:34;9.10;99.90